Time;durP1;ratioP1;P1;durP2;ratioP2;P2;SDS_P1;SDS_P2;PMS_P1;PMS_P2;Temp;Humidity;BMP_temperature;BMP_pressure;BME280_temperature;BME280_humidity;BME280_pressure;Samples;Min_cycle;Max_cycle;Signal;HPM_P1;HPM_P2
2023/05/24 00:01:41;;;;;;;3.00;2.80;;;26.00;59.10;;;;;;5054862;28;20539;-66
2023/05/24 00:04:10;;;;;;;3.00;2.80;;;26.00;59.00;;;;;;5051608;28;20466;-65
2023/05/24 00:06:41;;;;;;;3.67;3.37;;;26.00;59.00;;;;;;5050688;28;20448;-65
2023/05/24 00:09:10;;;;;;;2.90;2.70;;;26.00;59.00;;;;;;5059473;28;20528;-65
2023/05/24 00:11:38;;;;;;;3.13;2.93;;;26.00;59.00;;;;;;5067514;28;20488;-67
2023/05/24 00:14:07;;;;;;;3.30;3.10;;;26.00;59.00;;;;;;5065754;28;20468;-65
2023/05/24 00:16:36;;;;;;;3.17;2.97;;;25.90;59.00;;;;;;5069365;28;20523;-66
2023/05/24 00:19:05;;;;;;;3.10;2.90;;;25.90;59.00;;;;;;5064179;28;21275;-65
2023/05/24 00:21:35;;;;;;;3.20;3.00;;;25.90;59.00;;;;;;5058711;28;20472;-65
2023/05/24 00:24:05;;;;;;;3.07;2.87;;;25.90;58.80;;;;;;5062548;28;20445;-65
2023/05/24 00:26:33;;;;;;;3.00;2.80;;;25.90;58.90;;;;;;5050101;28;20489;-65
2023/05/24 00:29:02;;;;;;;3.13;2.93;;;25.90;59.00;;;;;;5062034;28;20592;-66
2023/05/24 00:31:30;;;;;;;2.77;2.60;;;25.90;58.90;;;;;;5032572;28;20498;-66
2023/05/24 00:33:58;;;;;;;2.77;2.60;;;25.90;58.90;;;;;;5064570;28;20470;-66
2023/05/24 00:36:26;;;;;;;2.70;2.50;;;25.80;59.00;;;;;;5058018;28;21000;-66
2023/05/24 00:38:55;;;;;;;2.47;2.37;;;25.80;59.00;;;;;;5038458;28;20871;-65
2023/05/24 00:41:25;;;;;;;3.70;3.40;;;25.80;59.00;;;;;;5070986;28;20804;-65
2023/05/24 00:43:53;;;;;;;3.27;3.00;;;25.80;59.00;;;;;;5052488;28;20468;-65
2023/05/24 00:46:28;;;;;;;2.80;2.70;;;25.80;59.20;;;;;;5061187;28;20834;-65
2023/05/24 00:48:57;;;;;;;2.80;2.70;;;25.70;59.20;;;;;;5070713;28;20437;-65
2023/05/24 00:51:26;;;;;;;2.73;2.53;;;25.70;59.10;;;;;;5070903;28;20498;-66
2023/05/24 00:53:55;;;;;;;3.50;3.20;;;25.70;59.10;;;;;;5070746;28;20469;-67
2023/05/24 00:56:25;;;;;;;2.77;2.57;;;25.70;59.10;;;;;;5071157;28;20469;-66
2023/05/24 00:58:54;;;;;;;3.00;2.80;;;25.70;59.20;;;;;;5070446;28;20464;-65
2023/05/24 01:01:24;;;;;;;3.43;3.20;;;25.70;59.10;;;;;;5070560;28;20474;-65
2023/05/24 01:03:53;;;;;;;2.90;2.77;;;25.70;59.00;;;;;;5070954;28;20454;-65
2023/05/24 01:06:22;;;;;;;3.47;3.27;;;25.70;59.00;;;;;;5050361;28;20460;-67
2023/05/24 01:09:18;;;;;;;3.43;3.13;;;25.70;59.00;;;;;;5055042;28;20962;-66
2023/05/24 01:11:58;;;;;;;3.07;2.87;;;25.60;59.00;;;;;;5051055;28;20456;-67
2023/05/24 01:14:31;;;;;;;3.30;3.10;;;25.60;59.10;;;;;;5070611;28;20814;-65
2023/05/24 01:17:08;;;;;;;3.00;2.80;;;25.60;59.00;;;;;;5052690;28;20467;-66
2023/05/24 01:19:58;;;;;;;3.30;3.10;;;25.60;59.10;;;;;;5073769;28;20440;-68
2023/05/24 01:22:53;;;;;;;2.80;2.60;;;25.60;59.00;;;;;;5073207;28;20480;-67
2023/05/24 01:25:36;;;;;;;2.97;2.77;;;25.60;58.80;;;;;;5050953;28;20486;-65
2023/05/24 01:28:07;;;;;;;2.83;2.63;;;25.60;58.80;;;;;;5055491;28;20476;-66
2023/05/24 01:30:36;;;;;;;2.90;2.70;;;25.50;58.90;;;;;;5074283;28;20496;-66
2023/05/24 01:33:04;;;;;;;3.13;2.90;;;25.50;58.80;;;;;;5065802;28;20535;-66
2023/05/24 01:35:38;;;;;;;3.00;2.80;;;25.50;58.70;;;;;;5074244;28;21166;-66
2023/05/24 01:38:06;;;;;;;2.93;2.73;;;25.50;58.70;;;;;;5056761;28;20513;-65
2023/05/24 01:40:35;;;;;;;3.13;2.83;;;25.50;58.80;;;;;;5074261;28;21003;-67
2023/05/24 01:43:11;;;;;;;3.73;3.33;;;25.50;58.70;;;;;;5070740;28;20526;-65
2023/05/24 01:45:44;;;;;;;3.30;3.10;;;25.50;58.50;;;;;;5073523;28;20462;-66
2023/05/24 01:48:24;;;;;;;3.37;3.17;;;25.50;58.60;;;;;;5049651;28;20468;-65
2023/05/24 01:50:57;;;;;;;3.17;2.87;;;25.50;58.70;;;;;;5073498;28;20435;-65
2023/05/24 01:53:31;;;;;;;3.80;3.50;;;25.50;58.60;;;;;;5074035;28;20513;-65
2023/05/24 01:56:02;;;;;;;2.70;2.60;;;25.50;58.50;;;;;;5059764;28;20453;-65
2023/05/24 01:58:33;;;;;;;3.27;2.97;;;25.50;58.60;;;;;;5072979;28;20959;-65
2023/05/24 02:01:02;;;;;;;4.17;2.90;;;25.50;58.60;;;;;;5055389;28;20456;-66
2023/05/24 02:03:32;;;;;;;3.30;3.10;;;25.40;58.50;;;;;;5043035;28;20503;-66
2023/05/24 02:06:00;;;;;;;3.40;3.20;;;25.40;58.60;;;;;;5055856;28;20457;-66
2023/05/24 02:08:28;;;;;;;2.90;2.70;;;25.40;58.60;;;;;;5073548;28;20457;-65
2023/05/24 02:10:56;;;;;;;3.10;2.90;;;25.40;58.60;;;;;;5072415;28;20453;-66
2023/05/24 02:13:24;;;;;;;3.33;3.03;;;25.40;58.60;;;;;;5054965;28;20804;-66
2023/05/24 02:15:54;;;;;;;2.90;2.70;;;25.40;58.60;;;;;;5064094;28;20854;-66
2023/05/24 02:18:23;;;;;;;3.10;2.90;;;25.40;58.60;;;;;;5070647;28;20509;-65
2023/05/24 02:20:51;;;;;;;3.57;3.37;;;25.40;58.50;;;;;;5058688;28;20962;-66
2023/05/24 02:23:19;;;;;;;2.93;2.73;;;25.40;58.60;;;;;;5055558;28;20841;-66
2023/05/24 02:25:47;;;;;;;3.37;3.17;;;25.30;58.60;;;;;;5072833;28;20447;-66
2023/05/24 02:28:16;;;;;;;3.77;3.43;;;25.30;58.50;;;;;;5072968;28;20525;-66
2023/05/24 02:30:44;;;;;;;3.13;2.90;;;25.40;58.50;;;;;;5051432;28;20472;-66
2023/05/24 02:33:14;;;;;;;3.67;3.37;;;25.30;58.50;;;;;;5068767;28;20448;-67
2023/05/24 02:35:42;;;;;;;3.20;3.00;;;25.30;58.40;;;;;;5065327;28;20536;-66
2023/05/24 02:38:10;;;;;;;3.40;3.20;;;25.30;58.40;;;;;;5073300;28;20493;-66
2023/05/24 02:40:39;;;;;;;4.03;3.73;;;25.30;58.50;;;;;;5055022;28;20463;-66
2023/05/24 02:43:08;;;;;;;3.13;2.93;;;25.30;58.50;;;;;;5071414;28;20473;-66
2023/05/24 02:45:36;;;;;;;3.50;3.00;;;25.30;58.50;;;;;;5072700;28;20862;-66
2023/05/24 02:48:05;;;;;;;2.93;2.73;;;25.30;58.50;;;;;;5054778;28;20475;-65
2023/05/24 02:50:35;;;;;;;4.13;3.73;;;25.30;58.50;;;;;;5072585;28;20968;-65
2023/05/24 02:53:04;;;;;;;3.23;3.03;;;25.20;58.40;;;;;;5056057;28;20465;-65
2023/05/24 02:55:32;;;;;;;3.13;2.93;;;25.30;58.40;;;;;;5072510;28;20498;-65
2023/05/24 02:58:01;;;;;;;2.57;2.47;;;25.20;58.30;;;;;;5058065;28;20469;-66
2023/05/24 03:00:31;;;;;;;4.13;3.73;;;25.30;58.30;;;;;;5068470;28;20472;-66
2023/05/24 03:03:01;;;;;;;3.57;3.27;;;25.20;58.30;;;;;;5054162;28;20485;-67
2023/05/24 03:05:30;;;;;;;3.47;3.27;;;25.20;58.30;;;;;;5072625;28;20447;-66
2023/05/24 03:08:00;;;;;;;3.43;3.23;;;25.20;58.30;;;;;;5054916;28;20454;-65
2023/05/24 03:10:28;;;;;;;3.40;3.20;;;25.20;58.50;;;;;;5054576;28;20926;-65
2023/05/24 03:12:56;;;;;;;3.27;3.07;;;25.20;58.50;;;;;;5071981;28;20461;-66
2023/05/24 03:15:24;;;;;;;3.30;3.00;;;25.10;58.30;;;;;;5076905;28;20514;-66
2023/05/24 03:17:53;;;;;;;3.80;3.43;;;25.20;58.40;;;;;;5054595;28;20461;-66
2023/05/24 03:20:22;;;;;;;4.03;3.73;;;25.10;58.50;;;;;;5055119;28;20469;-66
2023/05/24 03:22:51;;;;;;;3.00;2.80;;;25.10;58.30;;;;;;5061479;28;20468;-66
2023/05/24 03:25:21;;;;;;;3.43;3.13;;;25.10;58.50;;;;;;5059854;28;20525;-66
2023/05/24 03:27:49;;;;;;;4.43;3.23;;;25.10;58.30;;;;;;5054690;28;20561;-67
2023/05/24 03:30:19;;;;;;;3.30;3.10;;;25.10;58.20;;;;;;5064118;28;20451;-66
2023/05/24 03:32:54;;;;;;;3.40;3.00;;;25.10;58.10;;;;;;5059916;28;20475;-67
2023/05/24 03:35:22;;;;;;;3.70;3.23;;;25.10;58.10;;;;;;5052927;28;20818;-66
2023/05/24 03:37:51;;;;;;;3.40;3.07;;;25.10;58.10;;;;;;5071666;28;20453;-66
2023/05/24 03:40:22;;;;;;;3.10;2.90;;;25.10;58.00;;;;;;5059804;28;20470;-66
2023/05/24 03:42:54;;;;;;;3.30;3.00;;;25.10;57.90;;;;;;5053758;28;20527;-66
2023/05/24 03:45:33;;;;;;;4.37;3.70;;;25.10;57.90;;;;;;5070600;28;20464;-66
2023/05/24 03:48:07;;;;;;;3.53;3.20;;;25.10;58.00;;;;;;5053373;28;20794;-66
2023/05/24 03:50:35;;;;;;;3.70;3.50;;;25.00;58.10;;;;;;5079759;28;20464;-66
2023/05/24 03:53:03;;;;;;;3.30;2.97;;;25.00;58.00;;;;;;5053937;28;20996;-65
2023/05/24 03:55:33;;;;;;;3.13;2.83;;;25.00;57.80;;;;;;5054278;28;20460;-66
2023/05/24 03:58:01;;;;;;;3.50;3.20;;;25.00;57.80;;;;;;5073577;28;21016;-66
2023/05/24 04:00:30;;;;;;;3.43;3.13;;;25.00;57.80;;;;;;5061558;28;20491;-68
2023/05/24 04:02:58;;;;;;;3.07;2.87;;;25.00;57.80;;;;;;5063742;28;20506;-66
2023/05/24 04:05:28;;;;;;;3.70;3.40;;;25.00;57.90;;;;;;5054384;28;20828;-66
2023/05/24 04:07:57;;;;;;;3.63;3.30;;;25.00;57.80;;;;;;5053382;28;20466;-66
2023/05/24 04:10:25;;;;;;;3.10;2.87;;;25.00;57.80;;;;;;5054890;28;20478;-65
2023/05/24 04:12:55;;;;;;;3.43;3.13;;;25.00;57.70;;;;;;5070891;28;20511;-66
2023/05/24 04:15:24;;;;;;;3.60;3.30;;;25.00;57.70;;;;;;5073695;28;20442;-67
2023/05/24 04:17:53;;;;;;;7.20;3.93;;;25.00;57.80;;;;;;5049042;28;20468;-66
2023/05/24 04:20:24;;;;;;;3.80;3.40;;;25.00;57.60;;;;;;5070582;28;21332;-66
2023/05/24 04:22:53;;;;;;;4.43;2.90;;;25.00;57.70;;;;;;5058472;28;20485;-66
2023/05/24 04:25:21;;;;;;;6.37;3.60;;;24.90;57.80;;;;;;5075994;28;20464;-67
2023/05/24 04:27:49;;;;;;;4.57;3.67;;;24.90;57.90;;;;;;5065963;28;20488;-67
2023/05/24 04:30:20;;;;;;;4.33;3.80;;;24.90;57.80;;;;;;5052348;28;20452;-67
2023/05/24 04:32:48;;;;;;;3.30;3.10;;;24.90;57.60;;;;;;5059957;28;20481;-67
2023/05/24 04:35:17;;;;;;;3.80;2.70;;;24.90;57.50;;;;;;5055224;28;20475;-67
2023/05/24 04:37:47;;;;;;;3.93;3.53;;;24.90;57.40;;;;;;5064470;28;20508;-66
2023/05/24 04:40:16;;;;;;;3.73;3.40;;;24.90;57.40;;;;;;5053112;28;20504;-67
2023/05/24 04:42:44;;;;;;;3.50;3.20;;;24.90;57.40;;;;;;5064721;28;20502;-66
2023/05/24 04:45:13;;;;;;;3.50;3.30;;;24.90;57.30;;;;;;5051134;28;20453;-65
2023/05/24 04:47:42;;;;;;;4.77;4.40;;;24.90;57.30;;;;;;5070542;28;20475;-67
2023/05/24 04:50:11;;;;;;;4.47;3.90;;;24.90;57.30;;;;;;5051294;28;20448;-67
2023/05/24 04:52:39;;;;;;;4.03;3.27;;;24.90;57.30;;;;;;5069609;28;20571;-66
2023/05/24 04:55:08;;;;;;;4.20;3.20;;;24.90;57.30;;;;;;5073635;28;20442;-66
2023/05/24 04:57:36;;;;;;;4.00;3.70;;;24.90;57.40;;;;;;5066399;28;20483;-66
2023/05/24 05:00:06;;;;;;;4.37;3.27;;;24.90;57.40;;;;;;5070511;28;20443;-67
2023/05/24 05:02:35;;;;;;;3.83;3.50;;;24.90;57.40;;;;;;5068990;28;20521;-65
2023/05/24 05:05:06;;;;;;;3.50;3.20;;;24.90;57.50;;;;;;5067228;28;20476;-65
2023/05/24 05:07:34;;;;;;;4.63;3.67;;;24.90;57.60;;;;;;5073062;28;20457;-65
2023/05/24 05:10:02;;;;;;;3.57;3.37;;;24.90;57.60;;;;;;5072898;28;20460;-65
2023/05/24 05:12:30;;;;;;;3.80;3.47;;;24.90;57.70;;;;;;5070751;28;20465;-65
2023/05/24 05:14:59;;;;;;;4.10;3.53;;;24.90;57.70;;;;;;5074441;28;20468;-65
2023/05/24 05:17:27;;;;;;;3.67;3.37;;;24.90;57.70;;;;;;5072999;28;20470;-65
2023/05/24 05:19:55;;;;;;;6.47;4.47;;;24.90;57.70;;;;;;5063195;28;20509;-64
2023/05/24 05:22:25;;;;;;;4.90;4.00;;;24.90;57.80;;;;;;5073478;28;20443;-67
2023/05/24 05:24:53;;;;;;;4.40;3.53;;;24.90;57.90;;;;;;5063844;28;20967;-64
2023/05/24 05:27:21;;;;;;;5.53;5.13;;;25.00;58.00;;;;;;5058667;28;20491;-64
2023/05/24 05:29:49;;;;;;;3.93;3.70;;;25.00;57.90;;;;;;5043498;28;20476;-67
2023/05/24 05:32:18;;;;;;;4.20;3.80;;;25.00;57.90;;;;;;5047936;28;20480;-66
2023/05/24 05:34:46;;;;;;;5.80;4.00;;;25.00;58.00;;;;;;5052320;28;20481;-68
2023/05/24 05:37:14;;;;;;;4.53;3.70;;;25.00;57.80;;;;;;5047782;28;20452;-65
2023/05/24 05:39:44;;;;;;;5.73;4.00;;;25.00;57.80;;;;;;5055809;28;20456;-65
2023/05/24 05:42:12;;;;;;;4.63;4.13;;;25.00;57.80;;;;;;5040444;28;20444;-65
2023/05/24 05:44:40;;;;;;;6.13;4.23;;;25.00;57.80;;;;;;5042861;28;20539;-65
2023/05/24 05:47:08;;;;;;;4.53;4.10;;;25.00;57.80;;;;;;5051380;28;20445;-65
2023/05/24 05:49:37;;;;;;;4.97;4.30;;;25.00;57.70;;;;;;5038917;28;20972;-66
2023/05/24 05:52:05;;;;;;;6.17;4.83;;;25.00;57.70;;;;;;5047576;28;20994;-65
2023/05/24 05:54:34;;;;;;;4.40;4.00;;;25.00;57.80;;;;;;5050383;28;20444;-65
2023/05/24 05:57:04;;;;;;;4.80;4.30;;;25.00;57.80;;;;;;5042054;28;20458;-66
2023/05/24 05:59:34;;;;;;;6.53;5.07;;;25.00;57.80;;;;;;5040184;28;20489;-65
2023/05/24 06:02:03;;;;;;;6.67;4.37;;;25.00;57.70;;;;;;5058221;28;20460;-64
2023/05/24 06:04:31;;;;;;;7.20;4.50;;;25.00;57.80;;;;;;5041524;28;20516;-65
2023/05/24 06:06:59;;;;;;;4.57;4.17;;;25.00;57.80;;;;;;5050939;28;20551;-65
2023/05/24 06:09:28;;;;;;;4.80;4.00;;;25.00;57.80;;;;;;5057374;28;20454;-65
2023/05/24 06:11:56;;;;;;;7.93;4.90;;;25.00;57.70;;;;;;5032478;28;20449;-65
2023/05/24 06:14:25;;;;;;;7.57;4.63;;;25.00;57.70;;;;;;5047087;28;20492;-65
2023/05/24 06:16:54;;;;;;;4.60;4.20;;;25.00;57.60;;;;;;5022476;28;20456;-67
2023/05/24 06:19:25;;;;;;;7.40;6.53;;;25.00;57.60;;;;;;5042040;28;20510;-65
2023/05/24 06:21:54;;;;;;;4.70;4.00;;;25.00;57.50;;;;;;5032464;28;20450;-67
2023/05/24 06:24:22;;;;;;;4.70;4.27;;;25.00;57.60;;;;;;5049033;28;20591;-65
2023/05/24 06:26:51;;;;;;;5.87;4.23;;;24.90;57.50;;;;;;5049226;28;20493;-67
2023/05/24 06:29:20;;;;;;;6.20;4.63;;;25.00;57.50;;;;;;5055261;28;21403;-65
2023/05/24 06:31:50;;;;;;;5.03;4.30;;;25.00;57.40;;;;;;5068775;28;21132;-65
2023/05/24 06:34:20;;;;;;;5.07;4.60;;;25.00;57.50;;;;;;5052283;28;20522;-64
2023/05/24 06:36:49;;;;;;;4.30;3.90;;;24.90;57.40;;;;;;5063176;28;21000;-64
2023/05/24 06:39:19;;;;;;;5.50;5.10;;;24.90;57.40;;;;;;5080777;28;20452;-64
2023/05/24 06:41:50;;;;;;;4.10;3.63;;;24.90;57.40;;;;;;5062577;28;20446;-66
2023/05/24 06:44:30;;;;;;;5.30;4.80;;;24.90;57.40;;;;;;5037848;28;20476;-65
2023/05/24 06:47:00;;;;;;;5.57;4.30;;;24.90;57.40;;;;;;5062508;28;20534;-65
2023/05/24 06:49:29;;;;;;;4.03;3.63;;;24.90;57.40;;;;;;5053561;28;20453;-66
2023/05/24 06:51:57;;;;;;;4.20;3.80;;;24.90;57.40;;;;;;5061573;28;20476;-66
2023/05/24 06:54:25;;;;;;;4.60;4.00;;;24.90;57.40;;;;;;5053607;28;20455;-65
2023/05/24 06:56:54;;;;;;;4.83;4.17;;;24.90;57.30;;;;;;5066065;28;20464;-66
2023/05/24 06:59:23;;;;;;;4.87;4.47;;;24.90;57.30;;;;;;5070135;28;20458;-65
2023/05/24 07:01:56;;;;;;;5.20;3.53;;;25.00;57.30;;;;;;5066692;28;20456;-66
2023/05/24 07:04:28;;;;;;;4.77;4.10;;;24.90;57.30;;;;;;5053901;28;20471;-64
2023/05/24 07:06:57;;;;;;;4.10;3.70;;;24.90;57.30;;;;;;5067081;28;20452;-66
2023/05/24 07:09:25;;;;;;;4.97;4.23;;;24.90;57.20;;;;;;5051893;28;20503;-65
2023/05/24 07:11:53;;;;;;;5.00;4.53;;;24.90;57.20;;;;;;5066559;28;20459;-67
2023/05/24 07:14:24;;;;;;;5.40;4.57;;;24.90;57.20;;;;;;5073430;28;20450;-65
2023/05/24 07:16:56;;;;;;;4.43;3.87;;;25.00;57.20;;;;;;5064948;28;20458;-68
2023/05/24 07:19:27;;;;;;;4.70;4.20;;;25.00;57.20;;;;;;5064176;28;20444;-65
2023/05/24 07:21:57;;;;;;;4.30;3.90;;;25.00;57.00;;;;;;5062998;28;20467;-64
2023/05/24 07:24:25;;;;;;;4.67;4.20;;;25.00;57.10;;;;;;5051939;28;20474;-64
2023/05/24 07:26:55;;;;;;;4.00;3.70;;;25.00;57.00;;;;;;5057493;28;20843;-66
2023/05/24 07:29:24;;;;;;;5.67;4.63;;;25.00;56.90;;;;;;5050905;28;20489;-65
2023/05/24 07:31:54;;;;;;;4.10;3.80;;;25.10;56.80;;;;;;5033265;28;20462;-65
2023/05/24 07:34:26;;;;;;;6.23;5.60;;;25.10;56.70;;;;;;5053550;28;20513;-65
2023/05/24 07:36:54;;;;;;;7.27;5.60;;;25.10;56.80;;;;;;5070629;28;20954;-65
2023/05/24 07:39:24;;;;;;;4.60;4.20;;;25.10;56.70;;;;;;5071992;28;20777;-64
2023/05/24 07:41:52;;;;;;;6.20;4.33;;;25.10;56.60;;;;;;5064570;28;20880;-65
2023/05/24 07:44:21;;;;;;;4.27;3.90;;;25.20;56.50;;;;;;5057750;28;20461;-65
2023/05/24 07:46:49;;;;;;;6.20;4.43;;;25.20;56.40;;;;;;5068866;28;20997;-65
2023/05/24 07:49:18;;;;;;;4.30;3.90;;;25.20;56.40;;;;;;5055391;28;20561;-67
2023/05/24 07:51:46;;;;;;;5.70;4.67;;;25.20;56.40;;;;;;5049155;28;20524;-66
2023/05/24 07:54:15;;;;;;;4.80;4.40;;;25.20;56.40;;;;;;5060385;28;20986;-65
2023/05/24 07:56:44;;;;;;;5.10;4.60;;;25.20;56.30;;;;;;5071402;28;20451;-65
2023/05/24 07:59:12;;;;;;;5.03;4.53;;;25.20;56.40;;;;;;5072276;28;20497;-64
2023/05/24 08:01:41;;;;;;;4.47;4.10;;;25.20;56.40;;;;;;5080920;28;20449;-65
2023/05/24 08:04:09;;;;;;;5.43;4.03;;;25.20;56.40;;;;;;5070895;28;20493;-65
2023/05/24 08:06:38;;;;;;;4.40;4.07;;;25.20;56.40;;;;;;5071390;28;20502;-65
2023/05/24 08:09:08;;;;;;;4.30;3.67;;;25.20;56.40;;;;;;5071870;28;20453;-65
2023/05/24 08:11:36;;;;;;;4.23;3.93;;;25.20;56.40;;;;;;5070985;28;20943;-65
2023/05/24 08:14:06;;;;;;;4.40;4.03;;;25.20;56.40;;;;;;5070436;28;21386;-64
2023/05/24 08:16:34;;;;;;;4.80;3.93;;;25.20;56.30;;;;;;5070674;28;20967;-65
2023/05/24 08:19:02;;;;;;;4.73;3.90;;;25.20;56.40;;;;;;5062774;28;20460;-67
2023/05/24 08:21:30;;;;;;;4.50;4.10;;;25.20;56.50;;;;;;5071743;28;20449;-66
2023/05/24 08:23:59;;;;;;;5.07;4.47;;;25.20;56.80;;;;;;5066756;28;20502;-66
2023/05/24 08:26:27;;;;;;;4.23;3.90;;;25.30;56.90;;;;;;5052842;28;20838;-68
2023/05/24 08:28:55;;;;;;;6.03;4.60;;;25.30;57.00;;;;;;5068962;28;20468;-66
2023/05/24 08:31:25;;;;;;;4.13;3.73;;;25.30;57.10;;;;;;5074470;28;20441;-68
2023/05/24 08:33:54;;;;;;;4.50;4.10;;;25.40;57.10;;;;;;5065765;28;20448;-67
2023/05/24 08:36:23;;;;;;;5.03;4.70;;;25.40;57.20;;;;;;5071100;28;20448;-66
2023/05/24 08:38:51;;;;;;;4.30;3.77;;;25.40;57.30;;;;;;5069716;28;20453;-67
2023/05/24 08:41:19;;;;;;;5.40;3.70;;;25.40;57.30;;;;;;5070228;28;20472;-67
2023/05/24 08:43:48;;;;;;;4.20;3.80;;;25.50;57.40;;;;;;5065680;28;21000;-67
2023/05/24 08:46:17;;;;;;;4.30;3.90;;;25.50;57.50;;;;;;5076812;28;20924;-67
2023/05/24 08:48:48;;;;;;;4.80;4.40;;;25.50;57.50;;;;;;5070357;28;20943;-66
2023/05/24 08:51:17;;;;;;;4.63;3.80;;;25.50;57.50;;;;;;5045577;28;20550;-66
2023/05/24 08:53:48;;;;;;;6.73;4.80;;;25.50;57.60;;;;;;5064101;28;20452;-66
2023/05/24 08:56:17;;;;;;;6.07;4.10;;;25.50;57.70;;;;;;5077365;28;20457;-66
2023/05/24 08:58:46;;;;;;;4.50;4.10;;;25.50;57.70;;;;;;5077853;28;20800;-66
2023/05/24 09:01:16;;;;;;;4.60;4.30;;;25.50;57.80;;;;;;5065573;28;21088;-66
2023/05/24 09:03:47;;;;;;;4.07;3.67;;;25.50;57.80;;;;;;5056960;28;21024;-68
2023/05/24 09:06:17;;;;;;;3.70;3.40;;;25.60;57.80;;;;;;5061479;28;20464;-68
2023/05/24 09:08:46;;;;;;;4.80;4.30;;;25.60;57.90;;;;;;5063268;28;20452;-66
2023/05/24 09:11:16;;;;;;;3.87;3.57;;;25.60;57.90;;;;;;5069151;28;20971;-67
2023/05/24 09:13:45;;;;;;;4.17;3.73;;;25.60;57.90;;;;;;5068451;28;20919;-69
2023/05/24 09:16:15;;;;;;;4.90;4.20;;;25.60;57.90;;;;;;5069208;28;20457;-67
2023/05/24 09:18:43;;;;;;;4.83;4.53;;;25.70;57.90;;;;;;5070609;28;20649;-67
2023/05/24 09:21:13;;;;;;;4.37;3.83;;;25.70;58.00;;;;;;5071297;28;20538;-67
2023/05/24 09:23:42;;;;;;;4.17;3.93;;;25.70;58.00;;;;;;5069469;28;20441;-67
2023/05/24 09:26:11;;;;;;;4.30;3.90;;;25.70;57.90;;;;;;5045537;28;21006;-67
2023/05/24 09:28:40;;;;;;;4.70;3.80;;;25.70;57.90;;;;;;5069456;28;20457;-66
2023/05/24 09:31:08;;;;;;;4.70;3.97;;;25.70;57.90;;;;;;5063929;28;20463;-67
2023/05/24 09:33:39;;;;;;;5.97;4.73;;;25.70;57.90;;;;;;5071574;28;20506;-69
2023/05/24 09:36:08;;;;;;;4.70;4.30;;;25.70;57.90;;;;;;5062495;28;20476;-68
2023/05/24 09:38:37;;;;;;;6.90;4.87;;;25.70;57.90;;;;;;5069625;28;20483;-68
2023/05/24 09:41:09;;;;;;;4.30;4.00;;;25.70;57.90;;;;;;5072933;28;20514;-68
2023/05/24 09:43:48;;;;;;;4.00;3.70;;;25.70;57.90;;;;;;5073254;28;20445;-68
2023/05/24 09:46:17;;;;;;;5.10;4.47;;;25.70;57.90;;;;;;5070679;28;20561;-70
2023/05/24 09:48:57;;;;;;;4.07;3.73;;;25.70;57.80;;;;;;5074037;28;20452;-68
2023/05/24 09:51:26;;;;;;;4.80;4.40;;;25.70;57.90;;;;;;5072598;28;20445;-68
2023/05/24 09:54:00;;;;;;;5.73;3.93;;;25.70;57.90;;;;;;5067515;28;20446;-68
2023/05/24 09:56:29;;;;;;;6.60;4.03;;;25.70;57.90;;;;;;5062223;28;20473;-69
2023/05/24 09:58:58;;;;;;;4.50;4.10;;;25.70;57.90;;;;;;5072175;28;20516;-68
2023/05/24 10:01:27;;;;;;;6.07;4.87;;;25.70;57.90;;;;;;5052017;28;20454;-68
2023/05/24 10:03:57;;;;;;;4.53;4.23;;;25.70;57.90;;;;;;5072180;28;20446;-68
2023/05/24 10:06:26;;;;;;;4.37;3.93;;;25.70;57.90;;;;;;5075535;28;20550;-71
2023/05/24 10:08:56;;;;;;;4.37;4.07;;;25.70;57.90;;;;;;5064681;28;20457;-68
2023/05/24 10:11:26;;;;;;;5.13;4.63;;;25.70;58.00;;;;;;5047634;28;20898;-68
2023/05/24 10:13:55;;;;;;;4.20;3.60;;;25.70;58.00;;;;;;5050493;28;20449;-70
2023/05/24 10:16:23;;;;;;;4.50;4.10;;;25.70;58.00;;;;;;5071635;28;20458;-70
2023/05/24 10:18:53;;;;;;;6.23;4.57;;;25.70;58.00;;;;;;5057823;28;20464;-68
2023/05/24 10:21:23;;;;;;;4.57;4.17;;;25.70;58.00;;;;;;5068844;28;20456;-71
2023/05/24 10:23:57;;;;;;;4.00;3.80;;;25.70;58.10;;;;;;5080278;28;20467;-67
2023/05/24 10:26:31;;;;;;;4.40;3.90;;;25.70;58.10;;;;;;5064528;28;20566;-67
2023/05/24 10:29:06;;;;;;;5.03;3.50;;;25.70;58.10;;;;;;5066148;28;21304;-68
2023/05/24 10:31:37;;;;;;;5.10;4.60;;;25.70;58.10;;;;;;5057086;28;20972;-67
2023/05/24 10:34:07;;;;;;;5.70;4.20;;;25.70;58.00;;;;;;5055218;28;20475;-67
2023/05/24 10:36:39;;;;;;;4.40;4.10;;;25.70;58.00;;;;;;5075086;28;20466;-67
2023/05/24 10:39:11;;;;;;;4.10;3.80;;;25.70;58.00;;;;;;5064702;28;20464;-69
2023/05/24 10:41:42;;;;;;;3.90;3.60;;;25.70;58.00;;;;;;5064023;28;20940;-70
2023/05/24 10:44:18;;;;;;;5.60;4.80;;;25.70;58.00;;;;;;5062341;28;20461;-67
2023/05/24 10:47:09;;;;;;;6.10;4.40;;;25.70;58.00;;;;;;5072550;28;20574;-67
2023/05/24 10:49:39;;;;;;;7.37;5.87;;;25.70;58.10;;;;;;5071787;28;20458;-68
2023/05/24 10:52:08;;;;;;;8.93;6.40;;;25.70;58.20;;;;;;5050056;28;20461;-67
2023/05/24 10:54:37;;;;;;;10.10;7.30;;;25.70;58.20;;;;;;5067054;28;20951;-67
2023/05/24 10:57:11;;;;;;;11.20;7.80;;;25.70;58.30;;;;;;5081630;28;20450;-72
2023/05/24 10:59:42;;;;;;;9.30;7.40;;;25.70;58.30;;;;;;5066831;28;21001;-69
2023/05/24 11:02:12;;;;;;;10.07;7.87;;;25.70;58.40;;;;;;5069435;28;20463;-68
2023/05/24 11:04:43;;;;;;;9.70;8.70;;;25.70;58.40;;;;;;5074246;28;20504;-67
2023/05/24 11:07:14;;;;;;;11.47;8.20;;;25.70;58.50;;;;;;5079110;28;20476;-68
2023/05/24 11:09:45;;;;;;;10.63;8.60;;;25.70;58.50;;;;;;5078401;28;20506;-68
2023/05/24 11:12:17;;;;;;;13.83;10.73;;;25.70;58.50;;;;;;5068272;28;20459;-68
2023/05/24 11:14:50;;;;;;;10.60;8.53;;;25.70;58.60;;;;;;5062715;28;20805;-69
2023/05/24 11:17:20;;;;;;;14.80;10.33;;;25.70;58.60;;;;;;5052916;28;20558;-67
2023/05/24 11:19:52;;;;;;;13.07;9.30;;;25.70;58.60;;;;;;5069095;28;20454;-69
2023/05/24 11:22:22;;;;;;;15.20;10.10;;;25.70;58.60;;;;;;5065333;28;20941;-67
2023/05/24 11:24:52;;;;;;;14.00;8.97;;;25.70;58.70;;;;;;5059903;28;20457;-68
2023/05/24 11:27:22;;;;;;;10.40;9.20;;;25.80;58.90;;;;;;5073190;28;20506;-67
2023/05/24 11:29:51;;;;;;;14.20;8.67;;;25.80;58.90;;;;;;5073069;28;20465;-67
2023/05/24 11:32:22;;;;;;;15.23;8.43;;;25.80;59.00;;;;;;5062634;28;20537;-69
2023/05/24 11:34:51;;;;;;;10.60;7.50;;;25.90;59.00;;;;;;5044096;28;20450;-67
2023/05/24 11:37:20;;;;;;;11.43;7.77;;;25.90;59.00;;;;;;5075983;28;20453;-67
2023/05/24 11:40:09;;;;;;;11.03;7.47;;;25.90;59.00;;;;;;5076384;28;20466;-67
2023/05/24 11:42:39;;;;;;;9.73;7.60;;;25.90;59.00;;;;;;5079252;28;20484;-69
2023/05/24 11:45:09;;;;;;;12.50;7.93;;;26.00;59.10;;;;;;5041840;28;20461;-66
2023/05/24 11:47:38;;;;;;;8.60;7.50;;;26.00;59.10;;;;;;5070757;28;20461;-66
2023/05/24 11:50:07;;;;;;;9.40;7.00;;;26.00;59.10;;;;;;5071904;28;20516;-65
2023/05/24 11:52:39;;;;;;;8.83;7.70;;;26.00;59.10;;;;;;5070995;28;20970;-67
2023/05/24 11:55:12;;;;;;;10.03;6.63;;;26.00;59.20;;;;;;5059865;28;20940;-66
2023/05/24 11:57:55;;;;;;;10.13;6.53;;;26.00;59.20;;;;;;5064441;28;20453;-66
2023/05/24 12:00:27;;;;;;;13.10;7.90;;;26.00;59.10;;;;;;5061898;28;20473;-66
2023/05/24 12:03:00;;;;;;;9.67;6.93;;;26.00;59.30;;;;;;5066856;28;20461;-65
2023/05/24 12:05:30;;;;;;;9.43;6.13;;;26.00;59.40;;;;;;5064121;28;20517;-70
2023/05/24 12:08:04;;;;;;;8.00;6.00;;;26.10;59.40;;;;;;5074999;28;20546;-66
2023/05/24 12:10:35;;;;;;;12.50;6.30;;;26.10;59.40;;;;;;5070711;28;20491;-66
2023/05/24 12:13:06;;;;;;;10.30;6.03;;;26.10;59.40;;;;;;5064073;28;20964;-66
2023/05/24 12:15:35;;;;;;;6.20;5.60;;;26.10;59.50;;;;;;5068380;28;20449;-65
2023/05/24 12:18:03;;;;;;;6.80;5.37;;;26.10;59.50;;;;;;5070182;28;20496;-66
2023/05/24 12:20:32;;;;;;;7.33;5.80;;;26.10;59.50;;;;;;5070201;28;20454;-66
2023/05/24 12:23:01;;;;;;;6.90;5.83;;;26.10;59.50;;;;;;5066884;28;20885;-65
2023/05/24 12:25:29;;;;;;;6.33;5.73;;;26.10;59.50;;;;;;5068828;28;20920;-67
2023/05/24 12:27:58;;;;;;;6.77;5.30;;;26.10;59.60;;;;;;5065810;28;20496;-66
2023/05/24 12:30:29;;;;;;;9.10;6.10;;;26.10;59.60;;;;;;5067390;28;20448;-66
2023/05/24 12:32:59;;;;;;;8.00;6.50;;;26.10;59.60;;;;;;5065400;28;20441;-66
2023/05/24 12:35:27;;;;;;;10.93;5.97;;;26.10;59.60;;;;;;5070096;28;20547;-66
2023/05/24 12:37:59;;;;;;;10.27;6.30;;;26.20;59.60;;;;;;5069431;28;20458;-67
2023/05/24 12:40:32;;;;;;;8.53;5.70;;;26.20;59.70;;;;;;5047465;28;20454;-66
2023/05/24 12:43:02;;;;;;;7.50;5.50;;;26.20;59.70;;;;;;5070009;28;20456;-66
2023/05/24 12:45:32;;;;;;;6.70;5.23;;;26.20;59.70;;;;;;5073826;28;20468;-67
2023/05/24 12:48:03;;;;;;;9.10;5.03;;;26.20;59.70;;;;;;5069158;28;20889;-66
2023/05/24 12:50:33;;;;;;;6.20;5.13;;;26.20;59.70;;;;;;5062126;28;20480;-66
2023/05/24 12:53:01;;;;;;;8.63;5.47;;;26.20;59.70;;;;;;5062908;28;20439;-66
2023/05/24 12:55:30;;;;;;;7.10;5.20;;;26.20;59.70;;;;;;5051379;28;20461;-67
2023/05/24 12:58:01;;;;;;;7.53;5.03;;;26.20;59.80;;;;;;5065016;28;20787;-65
2023/05/24 13:00:30;;;;;;;7.73;5.83;;;26.20;59.80;;;;;;5067562;28;20453;-66